sensor_id;sensor_type;location;lat;lon;timestamp;P1;durP1;ratioP1;P2;durP2;ratioP2
28531;SDS011;15738;44.860;10.066;2022-11-21T00:02:34;48.72;;;22.67;;
28531;SDS011;15738;44.860;10.066;2022-11-21T00:05:19;48.58;;;22.60;;
28531;SDS011;15738;44.860;10.066;2022-11-21T00:08:05;48.80;;;23.42;;
28531;SDS011;15738;44.860;10.066;2022-11-21T00:10:51;50.20;;;22.77;;
28531;SDS011;15738;44.860;10.066;2022-11-21T00:13:37;47.58;;;21.48;;
28531;SDS011;15738;44.860;10.066;2022-11-21T00:16:23;52.60;;;21.92;;
28531;SDS011;15738;44.860;10.066;2022-11-21T00:19:08;49.88;;;21.48;;
28531;SDS011;15738;44.860;10.066;2022-11-21T00:21:54;43.50;;;21.63;;
28531;SDS011;15738;44.860;10.066;2022-11-21T00:24:40;45.35;;;21.85;;
28531;SDS011;15738;44.860;10.066;2022-11-21T00:27:26;48.55;;;22.13;;
28531;SDS011;15738;44.860;10.066;2022-11-21T00:30:11;41.75;;;19.42;;
28531;SDS011;15738;44.860;10.066;2022-11-21T00:32:58;40.88;;;18.67;;
28531;SDS011;15738;44.860;10.066;2022-11-21T00:35:43;41.03;;;18.08;;
28531;SDS011;15738;44.860;10.066;2022-11-21T00:38:29;39.40;;;17.15;;
28531;SDS011;15738;44.860;10.066;2022-11-21T00:41:15;39.28;;;17.02;;
28531;SDS011;15738;44.860;10.066;2022-11-21T00:44:00;34.58;;;15.25;;
28531;SDS011;15738;44.860;10.066;2022-11-21T00:46:46;35.10;;;15.10;;
28531;SDS011;15738;44.860;10.066;2022-11-21T00:49:32;32.35;;;15.13;;
28531;SDS011;15738;44.860;10.066;2022-11-21T00:52:17;35.75;;;15.88;;
28531;SDS011;15738;44.860;10.066;2022-11-21T00:55:03;35.40;;;14.50;;
28531;SDS011;15738;44.860;10.066;2022-11-21T00:57:50;27.70;;;13.55;;
28531;SDS011;15738;44.860;10.066;2022-11-21T01:00:35;30.63;;;13.52;;
28531;SDS011;15738;44.860;10.066;2022-11-21T01:03:21;29.60;;;13.00;;
28531;SDS011;15738;44.860;10.066;2022-11-21T01:08:54;27.20;;;12.23;;
28531;SDS011;15738;44.860;10.066;2022-11-21T01:11:39;22.20;;;11.30;;
28531;SDS011;15738;44.860;10.066;2022-11-21T01:14:25;29.20;;;11.15;;
28531;SDS011;15738;44.860;10.066;2022-11-21T01:17:11;23.05;;;11.52;;
28531;SDS011;15738;44.860;10.066;2022-11-21T01:19:57;26.05;;;11.38;;
28531;SDS011;15738;44.860;10.066;2022-11-21T01:22:43;22.65;;;11.02;;
28531;SDS011;15738;44.860;10.066;2022-11-21T01:25:29;25.27;;;10.30;;
28531;SDS011;15738;44.860;10.066;2022-11-21T01:28:17;23.17;;;10.20;;
28531;SDS011;15738;44.860;10.066;2022-11-21T01:31:03;26.35;;;10.60;;
28531;SDS011;15738;44.860;10.066;2022-11-21T01:33:50;23.35;;;10.00;;
28531;SDS011;15738;44.860;10.066;2022-11-21T01:36:36;23.25;;;9.65;;
28531;SDS011;15738;44.860;10.066;2022-11-21T01:39:21;22.75;;;9.43;;
28531;SDS011;15738;44.860;10.066;2022-11-21T01:42:08;19.92;;;9.30;;
28531;SDS011;15738;44.860;10.066;2022-11-21T01:44:57;15.85;;;7.45;;
28531;SDS011;15738;44.860;10.066;2022-11-21T01:47:42;16.00;;;7.40;;
28531;SDS011;15738;44.860;10.066;2022-11-21T01:50:28;17.20;;;6.63;;
28531;SDS011;15738;44.860;10.066;2022-11-21T01:53:13;12.40;;;6.10;;
28531;SDS011;15738;44.860;10.066;2022-11-21T01:56:00;14.15;;;6.60;;
28531;SDS011;15738;44.860;10.066;2022-11-21T01:58:48;12.18;;;6.00;;
28531;SDS011;15738;44.860;10.066;2022-11-21T02:01:37;14.48;;;6.72;;
28531;SDS011;15738;44.860;10.066;2022-11-21T02:04:24;18.23;;;6.75;;
28531;SDS011;15738;44.860;10.066;2022-11-21T02:07:13;10.45;;;5.82;;
28531;SDS011;15738;44.860;10.066;2022-11-21T02:10:02;11.38;;;6.22;;
28531;SDS011;15738;44.860;10.066;2022-11-21T02:12:50;11.13;;;5.85;;
28531;SDS011;15738;44.860;10.066;2022-11-21T02:15:42;12.90;;;6.63;;
28531;SDS011;15738;44.860;10.066;2022-11-21T02:18:28;12.38;;;6.03;;
28531;SDS011;15738;44.860;10.066;2022-11-21T02:21:22;12.45;;;6.03;;
28531;SDS011;15738;44.860;10.066;2022-11-21T02:27:22;10.57;;;5.15;;
28531;SDS011;15738;44.860;10.066;2022-11-21T02:30:08;12.48;;;6.43;;
28531;SDS011;15738;44.860;10.066;2022-11-21T02:32:55;8.93;;;4.72;;
28531;SDS011;15738;44.860;10.066;2022-11-21T02:35:41;9.63;;;4.35;;
28531;SDS011;15738;44.860;10.066;2022-11-21T02:38:28;9.15;;;3.72;;
28531;SDS011;15738;44.860;10.066;2022-11-21T02:41:18;8.15;;;4.05;;
28531;SDS011;15738;44.860;10.066;2022-11-21T02:44:14;8.07;;;4.57;;
28531;SDS011;15738;44.860;10.066;2022-11-21T02:47:04;10.95;;;4.65;;
28531;SDS011;15738;44.860;10.066;2022-11-21T02:53:04;7.68;;;3.92;;
28531;SDS011;15738;44.860;10.066;2022-11-21T02:55:52;7.15;;;3.97;;
28531;SDS011;15738;44.860;10.066;2022-11-21T02:58:37;11.50;;;4.25;;
28531;SDS011;15738;44.860;10.066;2022-11-21T03:01:23;7.97;;;4.47;;
28531;SDS011;15738;44.860;10.066;2022-11-21T03:04:09;9.77;;;4.90;;
28531;SDS011;15738;44.860;10.066;2022-11-21T03:06:55;7.93;;;4.43;;
28531;SDS011;15738;44.860;10.066;2022-11-21T03:09:40;7.60;;;4.20;;
28531;SDS011;15738;44.860;10.066;2022-11-21T03:12:26;8.18;;;4.13;;
28531;SDS011;15738;44.860;10.066;2022-11-21T03:15:12;12.05;;;3.70;;
28531;SDS011;15738;44.860;10.066;2022-11-21T03:18:00;8.73;;;3.45;;
28531;SDS011;15738;44.860;10.066;2022-11-21T03:20:47;7.35;;;3.30;;
28531;SDS011;15738;44.860;10.066;2022-11-21T03:23:32;6.15;;;2.97;;
28531;SDS011;15738;44.860;10.066;2022-11-21T03:26:18;5.78;;;2.80;;
28531;SDS011;15738;44.860;10.066;2022-11-21T03:29:04;7.65;;;3.00;;
28531;SDS011;15738;44.860;10.066;2022-11-21T03:31:49;7.60;;;3.03;;
28531;SDS011;15738;44.860;10.066;2022-11-21T03:34:35;6.47;;;2.90;;
28531;SDS011;15738;44.860;10.066;2022-11-21T03:37:21;7.68;;;2.80;;
28531;SDS011;15738;44.860;10.066;2022-11-21T03:40:07;4.53;;;2.53;;
28531;SDS011;15738;44.860;10.066;2022-11-21T03:42:53;5.13;;;2.22;;
28531;SDS011;15738;44.860;10.066;2022-11-21T03:45:38;6.55;;;2.13;;
28531;SDS011;15738;44.860;10.066;2022-11-21T03:48:24;4.65;;;2.42;;
28531;SDS011;15738;44.860;10.066;2022-11-21T03:51:10;5.35;;;2.45;;
28531;SDS011;15738;44.860;10.066;2022-11-21T03:53:56;10.63;;;2.55;;
28531;SDS011;15738;44.860;10.066;2022-11-21T03:56:42;7.57;;;3.30;;
28531;SDS011;15738;44.860;10.066;2022-11-21T03:59:28;7.30;;;4.25;;
28531;SDS011;15738;44.860;10.066;2022-11-21T04:02:13;12.55;;;4.78;;
28531;SDS011;15738;44.860;10.066;2022-11-21T04:04:59;12.05;;;6.03;;
28531;SDS011;15738;44.860;10.066;2022-11-21T04:07:44;14.18;;;6.60;;
28531;SDS011;15738;44.860;10.066;2022-11-21T04:10:30;10.35;;;5.78;;
28531;SDS011;15738;44.860;10.066;2022-11-21T04:13:16;13.02;;;5.60;;
28531;SDS011;15738;44.860;10.066;2022-11-21T04:16:02;16.60;;;6.82;;
28531;SDS011;15738;44.860;10.066;2022-11-21T04:18:47;12.48;;;6.20;;
28531;SDS011;15738;44.860;10.066;2022-11-21T04:21:33;11.85;;;6.03;;
28531;SDS011;15738;44.860;10.066;2022-11-21T04:24:19;11.73;;;5.80;;
28531;SDS011;15738;44.860;10.066;2022-11-21T04:27:06;12.77;;;5.18;;
28531;SDS011;15738;44.860;10.066;2022-11-21T04:29:52;16.83;;;6.22;;
28531;SDS011;15738;44.860;10.066;2022-11-21T04:32:37;10.23;;;5.43;;
28531;SDS011;15738;44.860;10.066;2022-11-21T04:35:23;10.80;;;5.13;;
28531;SDS011;15738;44.860;10.066;2022-11-21T04:38:10;11.63;;;4.53;;
28531;SDS011;15738;44.860;10.066;2022-11-21T04:40:56;7.43;;;4.00;;
28531;SDS011;15738;44.860;10.066;2022-11-21T04:43:41;12.70;;;3.97;;
28531;SDS011;15738;44.860;10.066;2022-11-21T04:46:27;7.65;;;4.32;;
28531;SDS011;15738;44.860;10.066;2022-11-21T04:49:13;7.47;;;3.83;;
28531;SDS011;15738;44.860;10.066;2022-11-21T04:51:59;7.30;;;4.05;;
28531;SDS011;15738;44.860;10.066;2022-11-21T04:54:44;7.60;;;3.63;;
28531;SDS011;15738;44.860;10.066;2022-11-21T04:57:31;9.20;;;3.70;;
28531;SDS011;15738;44.860;10.066;2022-11-21T05:00:17;7.55;;;3.70;;
28531;SDS011;15738;44.860;10.066;2022-11-21T05:03:08;4.68;;;3.00;;
28531;SDS011;15738;44.860;10.066;2022-11-21T05:05:54;5.70;;;3.33;;
28531;SDS011;15738;44.860;10.066;2022-11-21T05:08:40;9.65;;;3.33;;
28531;SDS011;15738;44.860;10.066;2022-11-21T05:11:26;5.47;;;2.90;;
28531;SDS011;15738;44.860;10.066;2022-11-21T05:14:30;6.20;;;2.92;;
28531;SDS011;15738;44.860;10.066;2022-11-21T05:17:16;6.68;;;3.13;;
28531;SDS011;15738;44.860;10.066;2022-11-21T05:20:02;6.95;;;3.15;;
28531;SDS011;15738;44.860;10.066;2022-11-21T05:22:51;5.43;;;2.90;;
28531;SDS011;15738;44.860;10.066;2022-11-21T05:25:37;6.57;;;3.33;;
28531;SDS011;15738;44.860;10.066;2022-11-21T05:28:23;8.85;;;3.75;;
28531;SDS011;15738;44.860;10.066;2022-11-21T05:31:08;8.73;;;3.95;;
28531;SDS011;15738;44.860;10.066;2022-11-21T05:33:54;6.63;;;3.30;;
28531;SDS011;15738;44.860;10.066;2022-11-21T05:36:39;8.00;;;3.92;;
28531;SDS011;15738;44.860;10.066;2022-11-21T05:39:25;7.15;;;3.92;;
28531;SDS011;15738;44.860;10.066;2022-11-21T05:42:11;6.65;;;3.50;;
28531;SDS011;15738;44.860;10.066;2022-11-21T05:44:57;6.75;;;3.30;;
28531;SDS011;15738;44.860;10.066;2022-11-21T05:47:42;7.28;;;3.30;;
28531;SDS011;15738;44.860;10.066;2022-11-21T05:50:28;7.50;;;3.03;;
28531;SDS011;15738;44.860;10.066;2022-11-21T05:53:14;12.15;;;3.47;;
28531;SDS011;15738;44.860;10.066;2022-11-21T05:56:10;8.40;;;3.72;;
28531;SDS011;15738;44.860;10.066;2022-11-21T05:58:58;14.32;;;4.28;;
28531;SDS011;15738;44.860;10.066;2022-11-21T06:01:43;6.50;;;3.47;;
28531;SDS011;15738;44.860;10.066;2022-11-21T06:04:47;6.45;;;3.35;;
28531;SDS011;15738;44.860;10.066;2022-11-21T06:07:33;9.35;;;3.38;;
28531;SDS011;15738;44.860;10.066;2022-11-21T06:10:19;8.68;;;3.78;;
28531;SDS011;15738;44.860;10.066;2022-11-21T06:13:04;13.88;;;8.40;;
28531;SDS011;15738;44.860;10.066;2022-11-21T06:16:13;14.40;;;9.32;;
28531;SDS011;15738;44.860;10.066;2022-11-21T06:19:00;13.60;;;7.03;;
28531;SDS011;15738;44.860;10.066;2022-11-21T06:21:48;13.13;;;7.30;;
28531;SDS011;15738;44.860;10.066;2022-11-21T06:24:35;20.52;;;8.82;;
28531;SDS011;15738;44.860;10.066;2022-11-21T06:27:20;18.67;;;8.20;;
28531;SDS011;15738;44.860;10.066;2022-11-21T06:30:06;12.48;;;6.20;;
28531;SDS011;15738;44.860;10.066;2022-11-21T06:32:52;9.75;;;5.55;;
28531;SDS011;15738;44.860;10.066;2022-11-21T06:35:38;12.50;;;5.65;;
28531;SDS011;15738;44.860;10.066;2022-11-21T06:38:23;11.68;;;4.88;;
28531;SDS011;15738;44.860;10.066;2022-11-21T06:41:13;9.57;;;5.25;;
28531;SDS011;15738;44.860;10.066;2022-11-21T06:43:59;18.55;;;7.07;;
28531;SDS011;15738;44.860;10.066;2022-11-21T06:46:46;19.48;;;7.43;;
28531;SDS011;15738;44.860;10.066;2022-11-21T06:49:35;18.65;;;9.32;;
28531;SDS011;15738;44.860;10.066;2022-11-21T06:52:21;21.65;;;7.47;;
28531;SDS011;15738;44.860;10.066;2022-11-21T06:55:08;25.08;;;6.53;;
28531;SDS011;15738;44.860;10.066;2022-11-21T06:57:55;20.40;;;6.80;;
28531;SDS011;15738;44.860;10.066;2022-11-21T07:00:42;18.13;;;7.18;;
28531;SDS011;15738;44.860;10.066;2022-11-21T07:03:28;18.35;;;5.97;;
28531;SDS011;15738;44.860;10.066;2022-11-21T07:06:14;16.15;;;6.80;;
28531;SDS011;15738;44.860;10.066;2022-11-21T07:08:59;10.75;;;6.25;;
28531;SDS011;15738;44.860;10.066;2022-11-21T07:12:05;17.08;;;7.22;;
28531;SDS011;15738;44.860;10.066;2022-11-21T07:15:09;13.65;;;5.63;;
28531;SDS011;15738;44.860;10.066;2022-11-21T07:17:56;12.85;;;5.75;;
28531;SDS011;15738;44.860;10.066;2022-11-21T07:20:42;13.60;;;5.60;;
28531;SDS011;15738;44.860;10.066;2022-11-21T07:23:28;14.88;;;5.38;;
28531;SDS011;15738;44.860;10.066;2022-11-21T07:26:16;15.48;;;5.07;;
28531;SDS011;15738;44.860;10.066;2022-11-21T07:29:01;19.40;;;6.10;;
28531;SDS011;15738;44.860;10.066;2022-11-21T07:31:47;16.58;;;6.40;;
28531;SDS011;15738;44.860;10.066;2022-11-21T07:34:32;20.20;;;6.80;;
28531;SDS011;15738;44.860;10.066;2022-11-21T07:37:19;19.17;;;6.82;;
28531;SDS011;15738;44.860;10.066;2022-11-21T07:40:04;11.90;;;5.95;;
28531;SDS011;15738;44.860;10.066;2022-11-21T07:42:51;12.95;;;5.97;;
28531;SDS011;15738;44.860;10.066;2022-11-21T07:45:37;14.30;;;6.35;;
28531;SDS011;15738;44.860;10.066;2022-11-21T07:48:22;15.98;;;6.55;;
28531;SDS011;15738;44.860;10.066;2022-11-21T07:51:08;19.70;;;6.13;;
28531;SDS011;15738;44.860;10.066;2022-11-21T07:53:54;18.10;;;6.70;;
28531;SDS011;15738;44.860;10.066;2022-11-21T07:56:40;13.15;;;6.28;;
28531;SDS011;15738;44.860;10.066;2022-11-21T07:59:26;15.95;;;5.95;;
28531;SDS011;15738;44.860;10.066;2022-11-21T08:02:17;13.75;;;5.53;;
28531;SDS011;15738;44.860;10.066;2022-11-21T08:05:04;14.00;;;5.50;;
28531;SDS011;15738;44.860;10.066;2022-11-21T08:07:50;11.27;;;5.57;;
28531;SDS011;15738;44.860;10.066;2022-11-21T08:10:37;11.38;;;6.28;;
28531;SDS011;15738;44.860;10.066;2022-11-21T08:13:23;12.65;;;6.45;;
28531;SDS011;15738;44.860;10.066;2022-11-21T08:16:09;14.88;;;6.88;;
28531;SDS011;15738;44.860;10.066;2022-11-21T08:18:55;15.55;;;7.13;;
28531;SDS011;15738;44.860;10.066;2022-11-21T08:21:41;12.27;;;6.68;;
28531;SDS011;15738;44.860;10.066;2022-11-21T08:24:26;14.65;;;6.80;;
28531;SDS011;15738;44.860;10.066;2022-11-21T08:27:12;13.05;;;6.63;;
28531;SDS011;15738;44.860;10.066;2022-11-21T08:29:59;12.23;;;7.25;;
28531;SDS011;15738;44.860;10.066;2022-11-21T08:32:45;12.75;;;6.50;;
28531;SDS011;15738;44.860;10.066;2022-11-21T08:35:30;15.93;;;7.03;;
28531;SDS011;15738;44.860;10.066;2022-11-21T08:38:16;13.95;;;7.10;;
28531;SDS011;15738;44.860;10.066;2022-11-21T08:41:02;11.88;;;6.20;;
28531;SDS011;15738;44.860;10.066;2022-11-21T08:44:06;20.13;;;7.03;;
28531;SDS011;15738;44.860;10.066;2022-11-21T08:46:58;12.65;;;6.55;;
28531;SDS011;15738;44.860;10.066;2022-11-21T08:49:44;13.85;;;7.15;;
28531;SDS011;15738;44.860;10.066;2022-11-21T08:52:30;16.00;;;7.38;;
28531;SDS011;15738;44.860;10.066;2022-11-21T08:55:16;20.52;;;7.68;;
28531;SDS011;15738;44.860;10.066;2022-11-21T08:58:01;12.90;;;6.82;;
28531;SDS011;15738;44.860;10.066;2022-11-21T09:00:47;17.33;;;7.20;;
28531;SDS011;15738;44.860;10.066;2022-11-21T09:03:33;16.30;;;6.60;;
28531;SDS011;15738;44.860;10.066;2022-11-21T09:06:19;14.10;;;6.47;;
28531;SDS011;15738;44.860;10.066;2022-11-21T09:09:05;12.45;;;6.50;;
28531;SDS011;15738;44.860;10.066;2022-11-21T09:11:51;13.75;;;6.88;;
28531;SDS011;15738;44.860;10.066;2022-11-21T09:14:37;11.32;;;6.38;;
28531;SDS011;15738;44.860;10.066;2022-11-21T09:17:41;20.90;;;7.15;;
28531;SDS011;15738;44.860;10.066;2022-11-21T09:20:45;14.52;;;6.55;;
28531;SDS011;15738;44.860;10.066;2022-11-21T09:23:31;11.77;;;7.18;;
28531;SDS011;15738;44.860;10.066;2022-11-21T09:26:17;12.77;;;6.18;;
28531;SDS011;15738;44.860;10.066;2022-11-21T09:29:03;13.57;;;6.72;;
28531;SDS011;15738;44.860;10.066;2022-11-21T09:31:48;11.88;;;6.60;;
28531;SDS011;15738;44.860;10.066;2022-11-21T09:34:34;16.75;;;6.65;;
28531;SDS011;15738;44.860;10.066;2022-11-21T09:37:20;13.30;;;6.95;;
28531;SDS011;15738;44.860;10.066;2022-11-21T09:40:05;13.43;;;7.25;;
28531;SDS011;15738;44.860;10.066;2022-11-21T09:46:20;11.45;;;6.82;;
28531;SDS011;15738;44.860;10.066;2022-11-21T09:49:11;12.73;;;7.07;;
28531;SDS011;15738;44.860;10.066;2022-11-21T09:51:58;17.40;;;7.80;;
28531;SDS011;15738;44.860;10.066;2022-11-21T09:54:47;14.73;;;7.35;;
28531;SDS011;15738;44.860;10.066;2022-11-21T09:57:37;14.65;;;7.40;;
28531;SDS011;15738;44.860;10.066;2022-11-21T10:00:23;13.85;;;7.50;;
28531;SDS011;15738;44.860;10.066;2022-11-21T10:03:10;15.75;;;7.55;;
28531;SDS011;15738;44.860;10.066;2022-11-21T10:06:08;17.77;;;8.73;;
28531;SDS011;15738;44.860;10.066;2022-11-21T10:09:15;25.65;;;9.48;;
28531;SDS011;15738;44.860;10.066;2022-11-21T10:15:34;14.35;;;7.57;;
28531;SDS011;15738;44.860;10.066;2022-11-21T10:27:39;14.85;;;7.32;;
28531;SDS011;15738;44.860;10.066;2022-11-21T10:30:27;15.02;;;8.00;;
28531;SDS011;15738;44.860;10.066;2022-11-21T10:33:17;14.43;;;6.95;;
28531;SDS011;15738;44.860;10.066;2022-11-21T10:45:20;10.35;;;5.80;;
28531;SDS011;15738;44.860;10.066;2022-11-21T10:48:07;13.02;;;5.03;;
28531;SDS011;15738;44.860;10.066;2022-11-21T10:54:07;10.80;;;5.25;;
28531;SDS011;15738;44.860;10.066;2022-11-21T10:57:17;11.93;;;6.30;;
28531;SDS011;15738;44.860;10.066;2022-11-21T11:05:52;11.82;;;6.72;;
28531;SDS011;15738;44.860;10.066;2022-11-21T11:08:50;12.00;;;6.80;;
28531;SDS011;15738;44.860;10.066;2022-11-21T11:11:37;17.83;;;7.15;;
28531;SDS011;15738;44.860;10.066;2022-11-21T11:14:30;12.10;;;6.88;;
28531;SDS011;15738;44.860;10.066;2022-11-21T11:17:24;19.60;;;7.85;;
28531;SDS011;15738;44.860;10.066;2022-11-21T11:20:34;15.82;;;8.02;;
28531;SDS011;15738;44.860;10.066;2022-11-21T11:23:25;13.82;;;7.25;;
28531;SDS011;15738;44.860;10.066;2022-11-21T11:29:22;19.90;;;7.25;;
28531;SDS011;15738;44.860;10.066;2022-11-21T11:32:17;12.45;;;6.90;;
28531;SDS011;15738;44.860;10.066;2022-11-21T11:37:58;15.75;;;7.53;;
28531;SDS011;15738;44.860;10.066;2022-11-21T11:40:47;14.70;;;6.53;;
28531;SDS011;15738;44.860;10.066;2022-11-21T11:50:10;10.13;;;6.22;;
28531;SDS011;15738;44.860;10.066;2022-11-21T11:53:22;15.02;;;5.93;;
28531;SDS011;15738;44.860;10.066;2022-11-21T11:59:02;12.90;;;6.65;;
28531;SDS011;15738;44.860;10.066;2022-11-21T12:05:04;9.30;;;6.15;;
28531;SDS011;15738;44.860;10.066;2022-11-21T12:08:15;14.02;;;6.80;;
28531;SDS011;15738;44.860;10.066;2022-11-21T12:18:35;12.30;;;6.43;;
28531;SDS011;15738;44.860;10.066;2022-11-21T12:21:32;10.57;;;6.22;;
28531;SDS011;15738;44.860;10.066;2022-11-21T12:24:17;8.93;;;5.68;;
28531;SDS011;15738;44.860;10.066;2022-11-21T12:27:29;11.13;;;5.75;;
28531;SDS011;15738;44.860;10.066;2022-11-21T12:30:25;15.07;;;7.03;;
28531;SDS011;15738;44.860;10.066;2022-11-21T12:33:30;13.38;;;6.40;;
28531;SDS011;15738;44.860;10.066;2022-11-21T12:45:36;9.45;;;6.00;;
28531;SDS011;15738;44.860;10.066;2022-11-21T12:51:57;10.23;;;6.30;;
28531;SDS011;15738;44.860;10.066;2022-11-21T12:58:25;14.32;;;7.25;;
28531;SDS011;15738;44.860;10.066;2022-11-21T13:02:07;11.00;;;6.75;;
28531;SDS011;15738;44.860;10.066;2022-11-21T13:04:53;11.88;;;6.57;;
28531;SDS011;15738;44.860;10.066;2022-11-21T13:07:41;11.82;;;6.70;;
28531;SDS011;15738;44.860;10.066;2022-11-21T13:10:28;12.88;;;6.72;;
28531;SDS011;15738;44.860;10.066;2022-11-21T13:13:21;13.40;;;7.20;;
28531;SDS011;15738;44.860;10.066;2022-11-21T13:16:17;10.63;;;6.65;;
28531;SDS011;15738;44.860;10.066;2022-11-21T13:31:14;15.35;;;8.70;;
28531;SDS011;15738;44.860;10.066;2022-11-21T13:40:46;16.00;;;8.23;;
28531;SDS011;15738;44.860;10.066;2022-11-21T13:44:05;10.43;;;6.95;;
28531;SDS011;15738;44.860;10.066;2022-11-21T14:08:31;14.30;;;7.60;;
28531;SDS011;15738;44.860;10.066;2022-11-21T14:11:18;15.10;;;8.55;;
28531;SDS011;15738;44.860;10.066;2022-11-21T14:14:07;13.45;;;8.20;;
28531;SDS011;15738;44.860;10.066;2022-11-21T14:16:58;18.40;;;9.32;;
28531;SDS011;15738;44.860;10.066;2022-11-21T14:19:46;15.27;;;8.67;;
28531;SDS011;15738;44.860;10.066;2022-11-21T14:22:41;22.42;;;8.50;;
28531;SDS011;15738;44.860;10.066;2022-11-21T14:31:11;19.77;;;9.60;;
28531;SDS011;15738;44.860;10.066;2022-11-21T14:33:57;15.38;;;9.52;;
28531;SDS011;15738;44.860;10.066;2022-11-21T14:36:43;23.83;;;9.15;;
28531;SDS011;15738;44.860;10.066;2022-11-21T14:39:30;19.05;;;10.25;;
28531;SDS011;15738;44.860;10.066;2022-11-21T14:42:35;18.58;;;9.43;;
28531;SDS011;15738;44.860;10.066;2022-11-21T14:45:21;17.00;;;9.07;;
28531;SDS011;15738;44.860;10.066;2022-11-21T14:48:10;18.02;;;9.75;;
28531;SDS011;15738;44.860;10.066;2022-11-21T14:50:57;19.30;;;9.15;;
28531;SDS011;15738;44.860;10.066;2022-11-21T14:53:46;18.85;;;9.60;;
28531;SDS011;15738;44.860;10.066;2022-11-21T14:56:33;17.85;;;9.68;;
28531;SDS011;15738;44.860;10.066;2022-11-21T14:59:23;16.63;;;9.77;;
28531;SDS011;15738;44.860;10.066;2022-11-21T15:02:24;19.85;;;10.20;;
28531;SDS011;15738;44.860;10.066;2022-11-21T15:05:12;16.75;;;10.55;;
28531;SDS011;15738;44.860;10.066;2022-11-21T15:08:22;21.08;;;11.32;;
28531;SDS011;15738;44.860;10.066;2022-11-21T15:14:34;22.63;;;12.20;;
28531;SDS011;15738;44.860;10.066;2022-11-21T15:17:20;20.65;;;12.57;;
28531;SDS011;15738;44.860;10.066;2022-11-21T15:22:57;35.65;;;13.70;;
28531;SDS011;15738;44.860;10.066;2022-11-21T15:25:45;28.15;;;14.25;;
28531;SDS011;15738;44.860;10.066;2022-11-21T15:28:31;33.67;;;15.27;;
28531;SDS011;15738;44.860;10.066;2022-11-21T15:31:18;30.92;;;15.13;;
28531;SDS011;15738;44.860;10.066;2022-11-21T15:34:05;29.85;;;14.60;;
28531;SDS011;15738;44.860;10.066;2022-11-21T15:37:14;28.30;;;14.93;;
28531;SDS011;15738;44.860;10.066;2022-11-21T15:40:04;40.35;;;15.57;;
28531;SDS011;15738;44.860;10.066;2022-11-21T15:42:50;35.60;;;16.23;;
28531;SDS011;15738;44.860;10.066;2022-11-21T15:45:37;33.65;;;15.88;;
28531;SDS011;15738;44.860;10.066;2022-11-21T15:48:24;36.33;;;15.68;;
28531;SDS011;15738;44.860;10.066;2022-11-21T15:51:10;31.42;;;15.88;;
28531;SDS011;15738;44.860;10.066;2022-11-21T15:53:56;39.95;;;17.20;;
28531;SDS011;15738;44.860;10.066;2022-11-21T15:56:42;38.03;;;18.00;;
28531;SDS011;15738;44.860;10.066;2022-11-21T15:59:28;46.30;;;19.45;;
28531;SDS011;15738;44.860;10.066;2022-11-21T16:02:14;42.08;;;19.90;;
28531;SDS011;15738;44.860;10.066;2022-11-21T16:04:59;39.00;;;19.52;;
28531;SDS011;15738;44.860;10.066;2022-11-21T16:07:45;47.55;;;20.55;;
28531;SDS011;15738;44.860;10.066;2022-11-21T16:10:33;34.78;;;19.45;;
28531;SDS011;15738;44.860;10.066;2022-11-21T16:13:20;43.83;;;20.08;;
28531;SDS011;15738;44.860;10.066;2022-11-21T16:16:05;45.00;;;20.30;;
28531;SDS011;15738;44.860;10.066;2022-11-21T16:18:51;47.35;;;21.25;;
28531;SDS011;15738;44.860;10.066;2022-11-21T16:21:37;49.97;;;23.17;;
28531;SDS011;15738;44.860;10.066;2022-11-21T16:24:23;35.47;;;18.58;;
28531;SDS011;15738;44.860;10.066;2022-11-21T16:27:08;42.35;;;20.20;;
28531;SDS011;15738;44.860;10.066;2022-11-21T16:29:54;34.67;;;19.40;;
28531;SDS011;15738;44.860;10.066;2022-11-21T16:32:40;40.47;;;19.70;;
28531;SDS011;15738;44.860;10.066;2022-11-21T16:35:25;36.28;;;18.85;;
28531;SDS011;15738;44.860;10.066;2022-11-21T16:38:11;35.60;;;19.95;;
28531;SDS011;15738;44.860;10.066;2022-11-21T16:40:57;50.03;;;21.60;;
28531;SDS011;15738;44.860;10.066;2022-11-21T16:43:46;57.67;;;26.83;;
28531;SDS011;15738;44.860;10.066;2022-11-21T16:46:33;55.45;;;25.88;;
28531;SDS011;15738;44.860;10.066;2022-11-21T16:49:24;55.03;;;26.00;;
28531;SDS011;15738;44.860;10.066;2022-11-21T16:52:11;47.38;;;22.70;;
28531;SDS011;15738;44.860;10.066;2022-11-21T16:54:58;39.92;;;20.77;;
28531;SDS011;15738;44.860;10.066;2022-11-21T16:57:45;37.50;;;19.10;;
28531;SDS011;15738;44.860;10.066;2022-11-21T17:00:31;37.58;;;19.63;;
28531;SDS011;15738;44.860;10.066;2022-11-21T17:03:17;49.03;;;20.98;;
28531;SDS011;15738;44.860;10.066;2022-11-21T17:06:03;39.13;;;21.40;;
28531;SDS011;15738;44.860;10.066;2022-11-21T17:08:49;34.25;;;20.15;;
28531;SDS011;15738;44.860;10.066;2022-11-21T17:11:35;44.50;;;23.30;;
28531;SDS011;15738;44.860;10.066;2022-11-21T17:14:21;43.95;;;22.35;;
28531;SDS011;15738;44.860;10.066;2022-11-21T17:17:06;39.47;;;21.48;;
28531;SDS011;15738;44.860;10.066;2022-11-21T17:19:52;45.92;;;22.42;;
28531;SDS011;15738;44.860;10.066;2022-11-21T17:22:38;42.42;;;23.02;;
28531;SDS011;15738;44.860;10.066;2022-11-21T17:25:24;49.08;;;23.83;;
28531;SDS011;15738;44.860;10.066;2022-11-21T17:28:10;43.58;;;21.85;;
28531;SDS011;15738;44.860;10.066;2022-11-21T17:30:55;45.95;;;23.98;;
28531;SDS011;15738;44.860;10.066;2022-11-21T17:33:41;54.03;;;25.10;;
28531;SDS011;15738;44.860;10.066;2022-11-21T17:36:29;47.03;;;24.80;;
28531;SDS011;15738;44.860;10.066;2022-11-21T17:39:18;49.45;;;24.83;;
28531;SDS011;15738;44.860;10.066;2022-11-21T17:42:06;47.63;;;25.38;;
28531;SDS011;15738;44.860;10.066;2022-11-21T17:44:52;55.05;;;25.42;;
28531;SDS011;15738;44.860;10.066;2022-11-21T17:47:38;48.40;;;25.75;;
28531;SDS011;15738;44.860;10.066;2022-11-21T17:50:25;53.13;;;24.20;;
28531;SDS011;15738;44.860;10.066;2022-11-21T17:53:10;44.58;;;23.58;;
28531;SDS011;15738;44.860;10.066;2022-11-21T17:55:57;49.53;;;25.48;;
28531;SDS011;15738;44.860;10.066;2022-11-21T17:58:43;59.75;;;25.23;;
28531;SDS011;15738;44.860;10.066;2022-11-21T18:01:31;54.67;;;26.40;;
28531;SDS011;15738;44.860;10.066;2022-11-21T18:04:18;54.83;;;26.15;;
28531;SDS011;15738;44.860;10.066;2022-11-21T18:07:04;51.95;;;26.55;;
28531;SDS011;15738;44.860;10.066;2022-11-21T18:09:53;55.17;;;26.45;;
28531;SDS011;15738;44.860;10.066;2022-11-21T18:12:40;55.58;;;26.73;;
28531;SDS011;15738;44.860;10.066;2022-11-21T18:15:27;52.00;;;27.52;;
28531;SDS011;15738;44.860;10.066;2022-11-21T18:18:12;48.47;;;26.45;;
28531;SDS011;15738;44.860;10.066;2022-11-21T18:21:05;61.88;;;25.55;;
28531;SDS011;15738;44.860;10.066;2022-11-21T18:23:56;52.83;;;27.67;;
28531;SDS011;15738;44.860;10.066;2022-11-21T18:26:43;51.17;;;26.95;;
28531;SDS011;15738;44.860;10.066;2022-11-21T18:29:33;58.75;;;27.02;;
28531;SDS011;15738;44.860;10.066;2022-11-21T18:32:22;56.53;;;27.63;;
28531;SDS011;15738;44.860;10.066;2022-11-21T18:35:08;55.35;;;27.30;;
28531;SDS011;15738;44.860;10.066;2022-11-21T18:37:58;64.00;;;29.45;;
28531;SDS011;15738;44.860;10.066;2022-11-21T18:40:47;59.08;;;31.17;;